sensor_id;sensor_type;location;lat;lon;timestamp;P1;durP1;ratioP1;P2;durP2;ratioP2
21444;SDS011;10883;51.946;20.140;2023-04-25T00:01:31;15.25;;;9.75;;
21444;SDS011;10883;51.946;20.140;2023-04-25T00:04:00;12.82;;;9.50;;
21444;SDS011;10883;51.946;20.140;2023-04-25T00:06:26;16.08;;;10.10;;
21444;SDS011;10883;51.946;20.140;2023-04-25T00:08:52;13.55;;;9.30;;
21444;SDS011;10883;51.946;20.140;2023-04-25T00:11:18;15.63;;;9.38;;
21444;SDS011;10883;51.946;20.140;2023-04-25T00:13:44;12.40;;;8.50;;
21444;SDS011;10883;51.946;20.140;2023-04-25T00:16:11;11.48;;;8.00;;
21444;SDS011;10883;51.946;20.140;2023-04-25T00:18:39;11.75;;;8.07;;
21444;SDS011;10883;51.946;20.140;2023-04-25T00:21:07;13.80;;;8.45;;
21444;SDS011;10883;51.946;20.140;2023-04-25T00:23:32;16.63;;;7.82;;
21444;SDS011;10883;51.946;20.140;2023-04-25T00:26:00;12.15;;;7.93;;
21444;SDS011;10883;51.946;20.140;2023-04-25T00:28:26;12.75;;;7.50;;
21444;SDS011;10883;51.946;20.140;2023-04-25T00:30:52;11.45;;;7.57;;
21444;SDS011;10883;51.946;20.140;2023-04-25T00:33:18;12.50;;;7.28;;
21444;SDS011;10883;51.946;20.140;2023-04-25T00:35:43;10.90;;;6.68;;
21444;SDS011;10883;51.946;20.140;2023-04-25T00:38:09;9.10;;;6.85;;
21444;SDS011;10883;51.946;20.140;2023-04-25T00:40:35;9.30;;;6.78;;
21444;SDS011;10883;51.946;20.140;2023-04-25T00:43:01;10.77;;;7.38;;
21444;SDS011;10883;51.946;20.140;2023-04-25T00:45:27;8.73;;;6.03;;
21444;SDS011;10883;51.946;20.140;2023-04-25T00:47:57;7.68;;;5.85;;
21444;SDS011;10883;51.946;20.140;2023-04-25T00:50:23;9.75;;;5.90;;
21444;SDS011;10883;51.946;20.140;2023-04-25T00:52:49;10.98;;;6.55;;
21444;SDS011;10883;51.946;20.140;2023-04-25T00:55:15;9.88;;;6.22;;
21444;SDS011;10883;51.946;20.140;2023-04-25T00:57:42;9.65;;;6.35;;
21444;SDS011;10883;51.946;20.140;2023-04-25T01:00:08;10.20;;;6.05;;
21444;SDS011;10883;51.946;20.140;2023-04-25T01:02:36;7.75;;;5.32;;
21444;SDS011;10883;51.946;20.140;2023-04-25T01:05:02;11.27;;;5.80;;
21444;SDS011;10883;51.946;20.140;2023-04-25T01:07:28;9.45;;;5.57;;
21444;SDS011;10883;51.946;20.140;2023-04-25T01:09:55;7.85;;;5.50;;
21444;SDS011;10883;51.946;20.140;2023-04-25T01:12:21;6.53;;;4.90;;
21444;SDS011;10883;51.946;20.140;2023-04-25T01:14:48;8.48;;;4.85;;
21444;SDS011;10883;51.946;20.140;2023-04-25T01:17:13;7.45;;;4.95;;
21444;SDS011;10883;51.946;20.140;2023-04-25T01:19:40;6.70;;;4.60;;
21444;SDS011;10883;51.946;20.140;2023-04-25T01:22:06;7.50;;;4.60;;
21444;SDS011;10883;51.946;20.140;2023-04-25T01:24:32;6.72;;;4.55;;
21444;SDS011;10883;51.946;20.140;2023-04-25T01:26:58;5.57;;;4.05;;
21444;SDS011;10883;51.946;20.140;2023-04-25T01:29:25;8.52;;;4.00;;
21444;SDS011;10883;51.946;20.140;2023-04-25T01:31:52;5.45;;;4.03;;
21444;SDS011;10883;51.946;20.140;2023-04-25T01:34:18;6.13;;;3.65;;
21444;SDS011;10883;51.946;20.140;2023-04-25T01:36:44;5.38;;;3.95;;
21444;SDS011;10883;51.946;20.140;2023-04-25T01:39:12;6.57;;;3.55;;
21444;SDS011;10883;51.946;20.140;2023-04-25T01:41:37;7.43;;;4.63;;
21444;SDS011;10883;51.946;20.140;2023-04-25T01:44:03;7.50;;;3.95;;
21444;SDS011;10883;51.946;20.140;2023-04-25T01:46:30;12.98;;;4.25;;
21444;SDS011;10883;51.946;20.140;2023-04-25T01:48:56;5.15;;;3.75;;
21444;SDS011;10883;51.946;20.140;2023-04-25T01:51:21;5.47;;;3.45;;
21444;SDS011;10883;51.946;20.140;2023-04-25T01:53:47;9.88;;;3.88;;
21444;SDS011;10883;51.946;20.140;2023-04-25T01:56:13;6.10;;;3.92;;
21444;SDS011;10883;51.946;20.140;2023-04-25T01:58:39;6.10;;;3.72;;
21444;SDS011;10883;51.946;20.140;2023-04-25T02:01:05;5.95;;;3.40;;
21444;SDS011;10883;51.946;20.140;2023-04-25T02:03:31;5.25;;;3.35;;
21444;SDS011;10883;51.946;20.140;2023-04-25T02:05:57;4.32;;;3.40;;
21444;SDS011;10883;51.946;20.140;2023-04-25T02:08:23;5.30;;;3.13;;
21444;SDS011;10883;51.946;20.140;2023-04-25T02:10:50;5.18;;;3.40;;
21444;SDS011;10883;51.946;20.140;2023-04-25T02:13:16;4.75;;;3.33;;
21444;SDS011;10883;51.946;20.140;2023-04-25T02:15:42;5.43;;;3.85;;
21444;SDS011;10883;51.946;20.140;2023-04-25T02:18:08;5.03;;;3.90;;
21444;SDS011;10883;51.946;20.140;2023-04-25T02:20:35;6.22;;;3.65;;
21444;SDS011;10883;51.946;20.140;2023-04-25T02:23:02;8.80;;;4.47;;
21444;SDS011;10883;51.946;20.140;2023-04-25T02:25:28;5.75;;;3.75;;
21444;SDS011;10883;51.946;20.140;2023-04-25T02:27:54;4.70;;;3.63;;
21444;SDS011;10883;51.946;20.140;2023-04-25T02:30:20;6.68;;;3.70;;
21444;SDS011;10883;51.946;20.140;2023-04-25T02:32:45;6.63;;;4.35;;
21444;SDS011;10883;51.946;20.140;2023-04-25T02:35:11;6.13;;;4.00;;
21444;SDS011;10883;51.946;20.140;2023-04-25T02:37:38;6.00;;;4.55;;
21444;SDS011;10883;51.946;20.140;2023-04-25T02:40:05;6.88;;;4.22;;
21444;SDS011;10883;51.946;20.140;2023-04-25T02:42:31;6.28;;;4.65;;
21444;SDS011;10883;51.946;20.140;2023-04-25T02:44:57;6.53;;;4.65;;
21444;SDS011;10883;51.946;20.140;2023-04-25T02:47:23;7.53;;;4.68;;
21444;SDS011;10883;51.946;20.140;2023-04-25T02:49:49;7.05;;;5.43;;
21444;SDS011;10883;51.946;20.140;2023-04-25T02:52:15;6.32;;;4.97;;
21444;SDS011;10883;51.946;20.140;2023-04-25T02:54:41;8.75;;;5.70;;
21444;SDS011;10883;51.946;20.140;2023-04-25T02:57:07;7.35;;;5.60;;
21444;SDS011;10883;51.946;20.140;2023-04-25T02:59:33;7.95;;;5.95;;
21444;SDS011;10883;51.946;20.140;2023-04-25T03:01:59;7.85;;;5.75;;
21444;SDS011;10883;51.946;20.140;2023-04-25T03:04:25;10.27;;;6.50;;
21444;SDS011;10883;51.946;20.140;2023-04-25T03:06:51;8.93;;;6.25;;
21444;SDS011;10883;51.946;20.140;2023-04-25T03:09:17;11.07;;;7.10;;
21444;SDS011;10883;51.946;20.140;2023-04-25T03:11:43;9.57;;;6.55;;
21444;SDS011;10883;51.946;20.140;2023-04-25T03:14:10;9.30;;;6.25;;
21444;SDS011;10883;51.946;20.140;2023-04-25T03:16:36;9.40;;;6.35;;
21444;SDS011;10883;51.946;20.140;2023-04-25T03:19:02;10.27;;;7.47;;
21444;SDS011;10883;51.946;20.140;2023-04-25T03:21:29;11.20;;;6.95;;
21444;SDS011;10883;51.946;20.140;2023-04-25T03:23:57;10.13;;;6.95;;
21444;SDS011;10883;51.946;20.140;2023-04-25T03:26:23;8.68;;;6.40;;
21444;SDS011;10883;51.946;20.140;2023-04-25T03:28:49;12.82;;;7.13;;
21444;SDS011;10883;51.946;20.140;2023-04-25T03:31:15;10.07;;;6.95;;
21444;SDS011;10883;51.946;20.140;2023-04-25T03:33:40;10.15;;;7.18;;
21444;SDS011;10883;51.946;20.140;2023-04-25T03:36:06;10.43;;;7.13;;
21444;SDS011;10883;51.946;20.140;2023-04-25T03:38:33;11.00;;;6.82;;
21444;SDS011;10883;51.946;20.140;2023-04-25T03:40:58;11.45;;;7.95;;
21444;SDS011;10883;51.946;20.140;2023-04-25T03:43:24;12.88;;;7.97;;
21444;SDS011;10883;51.946;20.140;2023-04-25T03:45:50;12.20;;;8.00;;
21444;SDS011;10883;51.946;20.140;2023-04-25T03:48:16;11.55;;;8.32;;
21444;SDS011;10883;51.946;20.140;2023-04-25T03:50:41;12.23;;;7.88;;
21444;SDS011;10883;51.946;20.140;2023-04-25T03:53:07;11.25;;;8.10;;
21444;SDS011;10883;51.946;20.140;2023-04-25T03:55:33;10.23;;;7.55;;
21444;SDS011;10883;51.946;20.140;2023-04-25T03:57:59;9.88;;;7.20;;
21444;SDS011;10883;51.946;20.140;2023-04-25T04:00:25;11.90;;;7.43;;
21444;SDS011;10883;51.946;20.140;2023-04-25T04:02:50;10.00;;;7.57;;
21444;SDS011;10883;51.946;20.140;2023-04-25T04:05:16;12.88;;;7.82;;
21444;SDS011;10883;51.946;20.140;2023-04-25T04:07:42;11.52;;;8.48;;
21444;SDS011;10883;51.946;20.140;2023-04-25T04:10:09;10.45;;;7.95;;
21444;SDS011;10883;51.946;20.140;2023-04-25T04:12:35;13.02;;;8.57;;
21444;SDS011;10883;51.946;20.140;2023-04-25T04:15:02;11.40;;;7.72;;
21444;SDS011;10883;51.946;20.140;2023-04-25T04:17:29;13.48;;;7.80;;
21444;SDS011;10883;51.946;20.140;2023-04-25T04:19:55;13.60;;;7.85;;
21444;SDS011;10883;51.946;20.140;2023-04-25T04:22:21;9.25;;;7.85;;
21444;SDS011;10883;51.946;20.140;2023-04-25T04:24:47;11.57;;;7.45;;
21444;SDS011;10883;51.946;20.140;2023-04-25T04:27:15;9.18;;;6.60;;
21444;SDS011;10883;51.946;20.140;2023-04-25T04:29:42;10.38;;;7.32;;
21444;SDS011;10883;51.946;20.140;2023-04-25T04:32:08;10.60;;;7.65;;
21444;SDS011;10883;51.946;20.140;2023-04-25T04:34:34;9.02;;;7.20;;
21444;SDS011;10883;51.946;20.140;2023-04-25T04:37:00;8.55;;;6.25;;
21444;SDS011;10883;51.946;20.140;2023-04-25T04:39:27;9.38;;;6.28;;
21444;SDS011;10883;51.946;20.140;2023-04-25T04:41:53;11.70;;;6.60;;
21444;SDS011;10883;51.946;20.140;2023-04-25T04:44:19;9.60;;;6.40;;
21444;SDS011;10883;51.946;20.140;2023-04-25T04:46:45;7.85;;;6.13;;
21444;SDS011;10883;51.946;20.140;2023-04-25T04:49:11;10.05;;;5.97;;
21444;SDS011;10883;51.946;20.140;2023-04-25T04:51:38;11.43;;;6.35;;
21444;SDS011;10883;51.946;20.140;2023-04-25T04:54:05;9.60;;;5.68;;
21444;SDS011;10883;51.946;20.140;2023-04-25T04:56:31;7.45;;;5.32;;
21444;SDS011;10883;51.946;20.140;2023-04-25T04:58:58;8.95;;;5.53;;
21444;SDS011;10883;51.946;20.140;2023-04-25T05:01:25;7.55;;;5.35;;
21444;SDS011;10883;51.946;20.140;2023-04-25T05:03:51;7.28;;;5.30;;
21444;SDS011;10883;51.946;20.140;2023-04-25T05:06:20;8.88;;;6.00;;
21444;SDS011;10883;51.946;20.140;2023-04-25T05:08:46;8.50;;;6.40;;
21444;SDS011;10883;51.946;20.140;2023-04-25T05:11:12;7.97;;;5.25;;
21444;SDS011;10883;51.946;20.140;2023-04-25T05:13:38;6.18;;;4.93;;
21444;SDS011;10883;51.946;20.140;2023-04-25T05:16:03;6.07;;;5.40;;
21444;SDS011;10883;51.946;20.140;2023-04-25T05:18:29;7.40;;;5.00;;
21444;SDS011;10883;51.946;20.140;2023-04-25T05:20:55;5.35;;;4.35;;
21444;SDS011;10883;51.946;20.140;2023-04-25T05:23:21;5.20;;;4.40;;
21444;SDS011;10883;51.946;20.140;2023-04-25T05:25:47;5.70;;;4.50;;
21444;SDS011;10883;51.946;20.140;2023-04-25T05:28:12;5.63;;;4.65;;
21444;SDS011;10883;51.946;20.140;2023-04-25T05:30:39;10.43;;;5.35;;
21444;SDS011;10883;51.946;20.140;2023-04-25T05:33:05;5.60;;;4.60;;
21444;SDS011;10883;51.946;20.140;2023-04-25T05:35:31;6.20;;;4.78;;
21444;SDS011;10883;51.946;20.140;2023-04-25T05:37:57;5.57;;;4.47;;
21444;SDS011;10883;51.946;20.140;2023-04-25T05:40:23;6.32;;;4.88;;
21444;SDS011;10883;51.946;20.140;2023-04-25T05:42:48;6.32;;;4.20;;
21444;SDS011;10883;51.946;20.140;2023-04-25T05:45:14;7.90;;;4.85;;
21444;SDS011;10883;51.946;20.140;2023-04-25T05:47:40;6.85;;;5.22;;
21444;SDS011;10883;51.946;20.140;2023-04-25T05:50:06;7.47;;;5.53;;
21444;SDS011;10883;51.946;20.140;2023-04-25T05:52:34;7.53;;;5.68;;
21444;SDS011;10883;51.946;20.140;2023-04-25T05:55:00;14.60;;;9.25;;
21444;SDS011;10883;51.946;20.140;2023-04-25T05:57:26;13.70;;;7.57;;
21444;SDS011;10883;51.946;20.140;2023-04-25T05:59:52;18.27;;;6.32;;
21444;SDS011;10883;51.946;20.140;2023-04-25T06:02:19;10.55;;;6.03;;
21444;SDS011;10883;51.946;20.140;2023-04-25T06:04:46;5.75;;;4.85;;
21444;SDS011;10883;51.946;20.140;2023-04-25T06:07:14;9.15;;;6.75;;
21444;SDS011;10883;51.946;20.140;2023-04-25T06:09:40;13.23;;;7.30;;
21444;SDS011;10883;51.946;20.140;2023-04-25T06:12:06;7.13;;;5.28;;
21444;SDS011;10883;51.946;20.140;2023-04-25T06:14:32;11.38;;;6.50;;
21444;SDS011;10883;51.946;20.140;2023-04-25T06:16:58;10.35;;;6.10;;
21444;SDS011;10883;51.946;20.140;2023-04-25T06:19:24;15.18;;;7.72;;
21444;SDS011;10883;51.946;20.140;2023-04-25T06:21:50;8.18;;;5.05;;
21444;SDS011;10883;51.946;20.140;2023-04-25T06:24:16;14.05;;;6.45;;
21444;SDS011;10883;51.946;20.140;2023-04-25T06:26:41;9.10;;;4.63;;
21444;SDS011;10883;51.946;20.140;2023-04-25T06:29:07;6.25;;;4.82;;
21444;SDS011;10883;51.946;20.140;2023-04-25T06:31:34;6.63;;;3.47;;
21444;SDS011;10883;51.946;20.140;2023-04-25T06:34:00;4.63;;;3.05;;
21444;SDS011;10883;51.946;20.140;2023-04-25T06:36:26;4.25;;;2.45;;
21444;SDS011;10883;51.946;20.140;2023-04-25T06:38:52;4.53;;;2.25;;
21444;SDS011;10883;51.946;20.140;2023-04-25T06:41:19;4.40;;;3.00;;
21444;SDS011;10883;51.946;20.140;2023-04-25T06:43:45;5.05;;;2.78;;
21444;SDS011;10883;51.946;20.140;2023-04-25T06:46:11;2.90;;;2.15;;
21444;SDS011;10883;51.946;20.140;2023-04-25T06:48:37;5.40;;;2.65;;
21444;SDS011;10883;51.946;20.140;2023-04-25T06:51:03;4.20;;;3.10;;
21444;SDS011;10883;51.946;20.140;2023-04-25T06:53:29;7.57;;;3.42;;
21444;SDS011;10883;51.946;20.140;2023-04-25T06:55:55;5.22;;;3.40;;
21444;SDS011;10883;51.946;20.140;2023-04-25T06:58:21;5.32;;;3.00;;
21444;SDS011;10883;51.946;20.140;2023-04-25T07:00:47;4.68;;;3.03;;
21444;SDS011;10883;51.946;20.140;2023-04-25T07:03:13;4.07;;;2.63;;
21444;SDS011;10883;51.946;20.140;2023-04-25T07:05:38;3.63;;;2.58;;
21444;SDS011;10883;51.946;20.140;2023-04-25T07:08:04;4.53;;;2.97;;
21444;SDS011;10883;51.946;20.140;2023-04-25T07:10:30;5.35;;;2.88;;
21444;SDS011;10883;51.946;20.140;2023-04-25T07:12:56;4.90;;;3.15;;
21444;SDS011;10883;51.946;20.140;2023-04-25T07:15:21;4.15;;;3.50;;
21444;SDS011;10883;51.946;20.140;2023-04-25T07:17:47;6.25;;;4.10;;
21444;SDS011;10883;51.946;20.140;2023-04-25T07:20:13;4.75;;;3.55;;
21444;SDS011;10883;51.946;20.140;2023-04-25T07:22:39;5.68;;;4.00;;
21444;SDS011;10883;51.946;20.140;2023-04-25T07:25:05;3.78;;;3.03;;
21444;SDS011;10883;51.946;20.140;2023-04-25T07:27:31;8.13;;;4.10;;
21444;SDS011;10883;51.946;20.140;2023-04-25T07:29:57;5.65;;;3.83;;
21444;SDS011;10883;51.946;20.140;2023-04-25T07:32:23;4.75;;;3.83;;
21444;SDS011;10883;51.946;20.140;2023-04-25T07:34:50;3.88;;;3.47;;
21444;SDS011;10883;51.946;20.140;2023-04-25T07:37:16;4.10;;;3.70;;
21444;SDS011;10883;51.946;20.140;2023-04-25T07:39:43;5.68;;;4.00;;
21444;SDS011;10883;51.946;20.140;2023-04-25T07:42:11;4.43;;;3.95;;
21444;SDS011;10883;51.946;20.140;2023-04-25T07:44:37;6.07;;;4.55;;
21444;SDS011;10883;51.946;20.140;2023-04-25T07:47:06;5.57;;;4.43;;
21444;SDS011;10883;51.946;20.140;2023-04-25T07:49:33;6.85;;;4.45;;
21444;SDS011;10883;51.946;20.140;2023-04-25T07:52:00;6.80;;;4.25;;
21444;SDS011;10883;51.946;20.140;2023-04-25T07:54:27;5.10;;;3.78;;
21444;SDS011;10883;51.946;20.140;2023-04-25T07:56:53;7.40;;;3.67;;
21444;SDS011;10883;51.946;20.140;2023-04-25T07:59:18;8.15;;;4.15;;
21444;SDS011;10883;51.946;20.140;2023-04-25T08:01:44;3.63;;;3.15;;
21444;SDS011;10883;51.946;20.140;2023-04-25T08:04:11;4.40;;;3.40;;
21444;SDS011;10883;51.946;20.140;2023-04-25T08:06:36;3.30;;;2.92;;
21444;SDS011;10883;51.946;20.140;2023-04-25T08:09:02;12.85;;;4.00;;
21444;SDS011;10883;51.946;20.140;2023-04-25T08:11:29;9.18;;;3.60;;
21444;SDS011;10883;51.946;20.140;2023-04-25T08:13:54;5.47;;;3.50;;
21444;SDS011;10883;51.946;20.140;2023-04-25T08:16:20;5.20;;;3.42;;
21444;SDS011;10883;51.946;20.140;2023-04-25T08:18:47;4.32;;;3.30;;
21444;SDS011;10883;51.946;20.140;2023-04-25T08:21:13;3.90;;;3.40;;
21444;SDS011;10883;51.946;20.140;2023-04-25T08:23:40;3.30;;;2.97;;
21444;SDS011;10883;51.946;20.140;2023-04-25T08:26:07;5.97;;;2.75;;
21444;SDS011;10883;51.946;20.140;2023-04-25T08:28:33;5.25;;;3.55;;
21444;SDS011;10883;51.946;20.140;2023-04-25T08:30:59;4.22;;;3.08;;
21444;SDS011;10883;51.946;20.140;2023-04-25T08:33:25;5.35;;;3.05;;
21444;SDS011;10883;51.946;20.140;2023-04-25T08:35:51;6.85;;;2.90;;
21444;SDS011;10883;51.946;20.140;2023-04-25T08:38:17;4.10;;;2.88;;
21444;SDS011;10883;51.946;20.140;2023-04-25T08:40:43;5.28;;;3.20;;
21444;SDS011;10883;51.946;20.140;2023-04-25T08:43:09;4.45;;;3.10;;
21444;SDS011;10883;51.946;20.140;2023-04-25T08:45:39;3.47;;;2.85;;
21444;SDS011;10883;51.946;20.140;2023-04-25T08:48:07;6.18;;;3.05;;
21444;SDS011;10883;51.946;20.140;2023-04-25T08:50:40;5.93;;;4.10;;
21444;SDS011;10883;51.946;20.140;2023-04-25T08:53:16;6.15;;;3.00;;
21444;SDS011;10883;51.946;20.140;2023-04-25T08:55:46;3.40;;;2.70;;
21444;SDS011;10883;51.946;20.140;2023-04-25T08:58:13;3.72;;;3.13;;
21444;SDS011;10883;51.946;20.140;2023-04-25T09:00:40;4.20;;;3.03;;
21444;SDS011;10883;51.946;20.140;2023-04-25T09:03:06;5.22;;;3.38;;
21444;SDS011;10883;51.946;20.140;2023-04-25T09:05:32;7.03;;;2.97;;
21444;SDS011;10883;51.946;20.140;2023-04-25T09:07:59;5.22;;;3.33;;
21444;SDS011;10883;51.946;20.140;2023-04-25T09:10:26;6.50;;;3.08;;
21444;SDS011;10883;51.946;20.140;2023-04-25T09:13:10;5.30;;;3.15;;
21444;SDS011;10883;51.946;20.140;2023-04-25T09:15:49;3.35;;;3.05;;
21444;SDS011;10883;51.946;20.140;2023-04-25T09:20:53;4.85;;;3.17;;
21444;SDS011;10883;51.946;20.140;2023-04-25T09:23:21;4.95;;;3.35;;
21444;SDS011;10883;51.946;20.140;2023-04-25T09:25:49;4.72;;;3.45;;
21444;SDS011;10883;51.946;20.140;2023-04-25T09:28:16;4.93;;;3.53;;
21444;SDS011;10883;51.946;20.140;2023-04-25T09:30:47;4.45;;;3.05;;
21444;SDS011;10883;51.946;20.140;2023-04-25T09:33:13;3.83;;;3.13;;
21444;SDS011;10883;51.946;20.140;2023-04-25T09:35:40;4.05;;;3.00;;
21444;SDS011;10883;51.946;20.140;2023-04-25T09:38:11;4.95;;;3.05;;
21444;SDS011;10883;51.946;20.140;2023-04-25T09:40:45;5.00;;;2.75;;
21444;SDS011;10883;51.946;20.140;2023-04-25T09:43:19;3.25;;;2.95;;
21444;SDS011;10883;51.946;20.140;2023-04-25T09:45:46;7.38;;;3.17;;
21444;SDS011;10883;51.946;20.140;2023-04-25T09:48:21;5.70;;;3.60;;
21444;SDS011;10883;51.946;20.140;2023-04-25T09:53:33;6.07;;;3.72;;
21444;SDS011;10883;51.946;20.140;2023-04-25T09:56:00;6.82;;;3.28;;
21444;SDS011;10883;51.946;20.140;2023-04-25T09:58:30;11.35;;;4.53;;
21444;SDS011;10883;51.946;20.140;2023-04-25T10:00:58;5.38;;;3.60;;
21444;SDS011;10883;51.946;20.140;2023-04-25T10:03:26;5.63;;;3.95;;
21444;SDS011;10883;51.946;20.140;2023-04-25T10:05:54;7.20;;;4.00;;
21444;SDS011;10883;51.946;20.140;2023-04-25T10:08:21;8.27;;;3.85;;
21444;SDS011;10883;51.946;20.140;2023-04-25T10:10:48;5.38;;;3.38;;
21444;SDS011;10883;51.946;20.140;2023-04-25T10:13:15;4.80;;;2.88;;
21444;SDS011;10883;51.946;20.140;2023-04-25T10:15:41;5.40;;;3.42;;
21444;SDS011;10883;51.946;20.140;2023-04-25T10:18:08;4.88;;;3.08;;
21444;SDS011;10883;51.946;20.140;2023-04-25T10:20:34;3.63;;;2.85;;
21444;SDS011;10883;51.946;20.140;2023-04-25T10:23:11;4.93;;;2.90;;
21444;SDS011;10883;51.946;20.140;2023-04-25T10:25:39;4.25;;;3.55;;
21444;SDS011;10883;51.946;20.140;2023-04-25T10:28:05;3.88;;;2.67;;
21444;SDS011;10883;51.946;20.140;2023-04-25T10:30:31;6.10;;;3.95;;
21444;SDS011;10883;51.946;20.140;2023-04-25T10:32:58;5.75;;;3.65;;
21444;SDS011;10883;51.946;20.140;2023-04-25T10:35:26;4.70;;;3.33;;
21444;SDS011;10883;51.946;20.140;2023-04-25T10:38:05;5.18;;;3.20;;
21444;SDS011;10883;51.946;20.140;2023-04-25T10:40:35;5.00;;;3.03;;
21444;SDS011;10883;51.946;20.140;2023-04-25T10:46:17;4.95;;;3.63;;
21444;SDS011;10883;51.946;20.140;2023-04-25T10:48:54;4.85;;;3.72;;
21444;SDS011;10883;51.946;20.140;2023-04-25T10:51:25;4.47;;;3.50;;
21444;SDS011;10883;51.946;20.140;2023-04-25T10:54:01;5.30;;;4.07;;
21444;SDS011;10883;51.946;20.140;2023-04-25T10:59:08;7.55;;;3.67;;
21444;SDS011;10883;51.946;20.140;2023-04-25T11:01:38;3.67;;;2.97;;
21444;SDS011;10883;51.946;20.140;2023-04-25T11:04:05;4.15;;;3.55;;
21444;SDS011;10883;51.946;20.140;2023-04-25T11:06:51;6.22;;;3.30;;
21444;SDS011;10883;51.946;20.140;2023-04-25T11:09:23;3.85;;;3.42;;
21444;SDS011;10883;51.946;20.140;2023-04-25T11:11:55;5.95;;;3.38;;
21444;SDS011;10883;51.946;20.140;2023-04-25T11:14:22;6.50;;;3.30;;
21444;SDS011;10883;51.946;20.140;2023-04-25T11:16:54;4.80;;;3.92;;
21444;SDS011;10883;51.946;20.140;2023-04-25T11:19:24;5.15;;;3.20;;
21444;SDS011;10883;51.946;20.140;2023-04-25T11:21:50;4.93;;;3.55;;
21444;SDS011;10883;51.946;20.140;2023-04-25T11:24:19;3.88;;;3.10;;
21444;SDS011;10883;51.946;20.140;2023-04-25T11:26:50;7.10;;;4.28;;
21444;SDS011;10883;51.946;20.140;2023-04-25T11:29:16;10.93;;;6.45;;
21444;SDS011;10883;51.946;20.140;2023-04-25T11:31:45;7.18;;;4.70;;
21444;SDS011;10883;51.946;20.140;2023-04-25T11:34:10;8.23;;;4.93;;
21444;SDS011;10883;51.946;20.140;2023-04-25T11:36:37;4.20;;;3.80;;
21444;SDS011;10883;51.946;20.140;2023-04-25T11:39:04;5.85;;;4.00;;
21444;SDS011;10883;51.946;20.140;2023-04-25T11:41:31;5.15;;;4.45;;
21444;SDS011;10883;51.946;20.140;2023-04-25T11:43:56;6.70;;;4.82;;
21444;SDS011;10883;51.946;20.140;2023-04-25T11:46:22;6.70;;;4.82;;
21444;SDS011;10883;51.946;20.140;2023-04-25T11:48:48;8.48;;;5.45;;
21444;SDS011;10883;51.946;20.140;2023-04-25T11:51:15;13.30;;;6.95;;
21444;SDS011;10883;51.946;20.140;2023-04-25T11:53:41;13.57;;;6.65;;
21444;SDS011;10883;51.946;20.140;2023-04-25T11:56:10;5.57;;;4.88;;
21444;SDS011;10883;51.946;20.140;2023-04-25T11:58:56;7.68;;;4.38;;
21444;SDS011;10883;51.946;20.140;2023-04-25T12:01:29;6.97;;;5.18;;
21444;SDS011;10883;51.946;20.140;2023-04-25T12:03:58;6.32;;;4.22;;
21444;SDS011;10883;51.946;20.140;2023-04-25T12:06:40;7.32;;;4.00;;
21444;SDS011;10883;51.946;20.140;2023-04-25T12:09:07;18.20;;;8.93;;
21444;SDS011;10883;51.946;20.140;2023-04-25T12:11:45;62.13;;;26.42;;
21444;SDS011;10883;51.946;20.140;2023-04-25T12:14:20;35.22;;;15.65;;
21444;SDS011;10883;51.946;20.140;2023-04-25T12:16:51;15.57;;;7.85;;
21444;SDS011;10883;51.946;20.140;2023-04-25T12:19:17;7.50;;;5.10;;
21444;SDS011;10883;51.946;20.140;2023-04-25T12:21:44;6.18;;;4.05;;
21444;SDS011;10883;51.946;20.140;2023-04-25T12:24:11;3.58;;;3.08;;
21444;SDS011;10883;51.946;20.140;2023-04-25T12:29:20;9.82;;;5.75;;
21444;SDS011;10883;51.946;20.140;2023-04-25T12:31:47;7.22;;;5.22;;
21444;SDS011;10883;51.946;20.140;2023-04-25T12:34:14;9.98;;;5.53;;
21444;SDS011;10883;51.946;20.140;2023-04-25T12:36:40;7.60;;;5.30;;
21444;SDS011;10883;51.946;20.140;2023-04-25T12:39:06;5.63;;;4.63;;
21444;SDS011;10883;51.946;20.140;2023-04-25T12:41:33;5.97;;;4.03;;
21444;SDS011;10883;51.946;20.140;2023-04-25T12:43:58;7.70;;;4.43;;
21444;SDS011;10883;51.946;20.140;2023-04-25T12:46:24;4.65;;;3.78;;
21444;SDS011;10883;51.946;20.140;2023-04-25T12:48:50;6.10;;;4.82;;
21444;SDS011;10883;51.946;20.140;2023-04-25T12:51:16;7.35;;;5.38;;
21444;SDS011;10883;51.946;20.140;2023-04-25T12:53:42;7.63;;;4.78;;
21444;SDS011;10883;51.946;20.140;2023-04-25T12:56:08;8.32;;;5.82;;
21444;SDS011;10883;51.946;20.140;2023-04-25T12:58:34;8.77;;;5.78;;
21444;SDS011;10883;51.946;20.140;2023-04-25T13:01:00;10.05;;;7.30;;
21444;SDS011;10883;51.946;20.140;2023-04-25T13:03:26;6.05;;;4.97;;
21444;SDS011;10883;51.946;20.140;2023-04-25T13:05:51;5.95;;;5.03;;
21444;SDS011;10883;51.946;20.140;2023-04-25T13:08:18;21.75;;;10.13;;
21444;SDS011;10883;51.946;20.140;2023-04-25T13:10:44;31.65;;;14.82;;
21444;SDS011;10883;51.946;20.140;2023-04-25T13:13:10;22.30;;;11.27;;
21444;SDS011;10883;51.946;20.140;2023-04-25T13:15:36;15.55;;;9.45;;
21444;SDS011;10883;51.946;20.140;2023-04-25T13:18:05;10.48;;;7.18;;
21444;SDS011;10883;51.946;20.140;2023-04-25T13:20:31;9.15;;;6.97;;
21444;SDS011;10883;51.946;20.140;2023-04-25T13:22:59;11.55;;;6.78;;
21444;SDS011;10883;51.946;20.140;2023-04-25T13:25:25;7.57;;;5.80;;
21444;SDS011;10883;51.946;20.140;2023-04-25T13:27:51;6.07;;;5.40;;
21444;SDS011;10883;51.946;20.140;2023-04-25T13:30:17;7.38;;;5.88;;
21444;SDS011;10883;51.946;20.140;2023-04-25T13:32:43;8.07;;;5.88;;
21444;SDS011;10883;51.946;20.140;2023-04-25T13:35:10;11.18;;;7.20;;
21444;SDS011;10883;51.946;20.140;2023-04-25T13:37:38;8.55;;;6.10;;
21444;SDS011;10883;51.946;20.140;2023-04-25T13:40:05;8.93;;;6.13;;
21444;SDS011;10883;51.946;20.140;2023-04-25T13:42:34;7.57;;;5.65;;
21444;SDS011;10883;51.946;20.140;2023-04-25T13:45:01;10.35;;;6.60;;
21444;SDS011;10883;51.946;20.140;2023-04-25T13:47:27;10.57;;;6.25;;
21444;SDS011;10883;51.946;20.140;2023-04-25T13:49:53;8.32;;;5.70;;
21444;SDS011;10883;51.946;20.140;2023-04-25T13:52:19;11.25;;;6.53;;
21444;SDS011;10883;51.946;20.140;2023-04-25T13:54:45;13.30;;;7.57;;
21444;SDS011;10883;51.946;20.140;2023-04-25T13:57:11;12.70;;;7.53;;
21444;SDS011;10883;51.946;20.140;2023-04-25T13:59:38;11.02;;;7.05;;
21444;SDS011;10883;51.946;20.140;2023-04-25T14:02:05;8.95;;;6.22;;
21444;SDS011;10883;51.946;20.140;2023-04-25T14:04:32;6.95;;;5.40;;
21444;SDS011;10883;51.946;20.140;2023-04-25T14:06:58;13.48;;;8.02;;
21444;SDS011;10883;51.946;20.140;2023-04-25T14:09:24;13.13;;;9.45;;
21444;SDS011;10883;51.946;20.140;2023-04-25T14:11:52;13.15;;;8.52;;
21444;SDS011;10883;51.946;20.140;2023-04-25T14:14:18;9.85;;;6.95;;
21444;SDS011;10883;51.946;20.140;2023-04-25T14:16:45;17.10;;;9.27;;
21444;SDS011;10883;51.946;20.140;2023-04-25T14:19:13;8.65;;;5.82;;
21444;SDS011;10883;51.946;20.140;2023-04-25T14:21:42;9.65;;;6.18;;
21444;SDS011;10883;51.946;20.140;2023-04-25T14:24:08;10.00;;;6.60;;
21444;SDS011;10883;51.946;20.140;2023-04-25T14:26:36;8.98;;;6.32;;
21444;SDS011;10883;51.946;20.140;2023-04-25T14:29:05;8.20;;;6.43;;
21444;SDS011;10883;51.946;20.140;2023-04-25T14:31:32;9.27;;;6.40;;
21444;SDS011;10883;51.946;20.140;2023-04-25T14:34:01;8.00;;;6.20;;
21444;SDS011;10883;51.946;20.140;2023-04-25T14:36:30;10.25;;;7.72;;
21444;SDS011;10883;51.946;20.140;2023-04-25T14:38:57;18.08;;;9.32;;
21444;SDS011;10883;51.946;20.140;2023-04-25T14:41:23;11.93;;;8.40;;
21444;SDS011;10883;51.946;20.140;2023-04-25T14:43:49;13.70;;;8.73;;